Weather at Tshane Airport [CLOSED]

Public forecast

Using degrees Celsius for public forecast. Weather courtesy of forecast.io.

Current aviation weather report (METAR) for Tshane Airport

Report is more than 6 hours old.

Retrieved 2011/08/09 12:00 UTC (10 years ago):

FBTE 091200Z 36004KT CAVOK 27/01

Closest aviation forecast (TAF) to Tshane Airport

Forecast is more than 12 hours old.

Closest forecast is Witvlei Airport, 212.3 nm (393.1 km) WNW. Retrieved 2016/01/22 06:00 UTC (6 years ago):

TAF COR FYWI 220621Z 2206/2312 15009KT 9999 BKN030 BECMG 2217/2219 24005KT CAVOK